createdAt,value
2018-11-13T00:03:43.732Z,6.90
2018-11-13T00:08:47.726Z,6.80
2018-11-13T00:13:51.671Z,6.80
2018-11-13T00:18:55.512Z,6.80
2018-11-13T00:23:59.421Z,6.70
2018-11-13T00:29:03.275Z,6.70
2018-11-13T00:34:07.120Z,6.70
2018-11-13T00:39:12.657Z,6.70
2018-11-13T00:44:16.475Z,6.80
2018-11-13T00:49:20.319Z,6.70
2018-11-13T00:59:27.710Z,6.70
2018-11-13T01:04:31.540Z,6.70
2018-11-13T01:09:35.388Z,6.70
2018-11-13T01:14:39.252Z,6.70
2018-11-13T01:19:43.132Z,6.70
2018-11-13T01:24:46.979Z,6.60
2018-11-13T01:34:59.968Z,6.50
2018-11-13T01:40:04.033Z,6.50
2018-11-13T01:45:09.486Z,6.50
2018-11-13T01:50:13.935Z,6.50
2018-11-13T01:55:17.792Z,6.50
2018-11-13T02:05:26.740Z,6.40
2018-11-13T02:10:30.632Z,6.40
2018-11-13T02:20:38.060Z,6.40
2018-11-13T02:35:48.992Z,6.30
2018-11-13T02:45:56.395Z,6.30
2018-11-13T02:51:00.272Z,6.30
2018-11-13T02:56:04.164Z,6.30
2018-11-13T03:01:08.046Z,6.40
2018-11-13T03:21:22.509Z,6.20
2018-11-13T03:26:26.883Z,6.30
2018-11-13T03:31:30.794Z,6.30
2018-11-13T03:36:34.632Z,6.40
2018-11-13T03:41:38.628Z,6.40
2018-11-13T03:46:42.497Z,6.40
2018-11-13T03:51:46.376Z,6.40
2018-11-13T03:56:50.236Z,6.40
2018-11-13T04:06:57.606Z,6.40
2018-11-13T04:12:01.512Z,6.40
2018-11-13T04:22:09.163Z,6.30
2018-11-13T04:27:13.021Z,6.40
2018-11-13T04:32:16.869Z,6.40
2018-11-13T04:37:20.720Z,6.30
2018-11-13T04:47:28.106Z,6.40
2018-11-13T04:52:31.964Z,6.40
2018-11-13T04:57:35.832Z,6.40
2018-11-13T05:02:40.423Z,6.40
2018-11-13T05:07:47.146Z,6.40
2018-11-13T05:12:51.078Z,6.30
2018-11-13T05:17:54.926Z,6.30
2018-11-13T05:22:58.866Z,6.30
2018-11-13T05:28:02.655Z,6.30
2018-11-13T05:33:06.518Z,6.30
2018-11-13T05:58:24.578Z,6.20
2018-11-13T06:08:31.964Z,6.10
2018-11-13T06:13:35.827Z,6.10
2018-11-13T06:18:39.684Z,6.20
2018-11-13T06:23:43.582Z,6.20
2018-11-13T06:28:47.451Z,6.20
2018-11-13T06:33:51.314Z,6.10
2018-11-13T06:38:55.280Z,6.10
2018-11-13T06:43:59.042Z,6.20
2018-11-13T06:49:02.949Z,6.10
2018-11-13T06:54:18.093Z,6.10
2018-11-13T06:59:21.986Z,6.20
2018-11-13T07:04:25.869Z,6.20
2018-11-13T07:14:33.298Z,6.30
2018-11-13T07:19:37.146Z,6.20
2018-11-13T07:24:41.006Z,6.10
2018-11-13T07:29:44.907Z,6.20
2018-11-13T07:34:48.753Z,6.20
2018-11-13T07:39:52.652Z,6.40
2018-11-13T07:44:56.818Z,6.40
2018-11-13T07:50:00.678Z,6.40
2018-11-13T08:00:10.271Z,6.40
2018-11-13T08:10:18.103Z,6.50
2018-11-13T08:15:21.984Z,6.50
2018-11-13T08:25:30.137Z,6.40
2018-11-13T08:40:41.723Z,6.30
2018-11-13T08:50:49.272Z,6.20
2018-11-13T08:55:53.075Z,6.30
2018-11-13T09:21:11.098Z,6.60
2018-11-13T09:51:34.243Z,6.90
2018-11-13T09:56:38.315Z,6.90
2018-11-13T10:01:42.550Z,6.90
2018-11-13T10:16:53.015Z,7.30
2018-11-13T10:42:11.440Z,7.50
2018-11-13T10:47:15.299Z,7.50
2018-11-13T10:52:19.250Z,7.60
2018-11-13T10:57:23.095Z,7.60
2018-11-13T11:48:06.804Z,8.00
2018-11-13T12:03:18.460Z,8.00
2018-11-13T12:08:22.628Z,8.10
2018-11-13T12:18:30.657Z,8.30
2018-11-13T12:23:34.816Z,8.30
2018-11-13T12:28:38.934Z,8.40
2018-11-13T12:33:43.099Z,8.30
2018-11-13T12:38:47.294Z,8.40
2018-11-13T12:43:51.722Z,8.40
2018-11-13T12:48:56.239Z,8.50
2018-11-13T12:54:00.831Z,8.50
2018-11-13T12:59:04.993Z,8.50
2018-11-13T13:04:09.684Z,8.60
2018-11-13T13:09:13.929Z,8.60
2018-11-13T13:14:18.743Z,8.70
2018-11-13T13:19:22.931Z,8.70
2018-11-13T13:24:27.390Z,8.70
2018-11-13T13:29:31.550Z,5.60
2018-11-13T13:34:35.818Z,8.60
2018-11-13T13:39:40.333Z,8.50
2018-11-13T13:44:44.979Z,8.50
2018-11-13T13:49:49.900Z,8.50
2018-11-13T13:54:53.911Z,8.50
2018-11-13T13:59:58.316Z,8.60
2018-11-13T14:05:02.454Z,8.60
2018-11-13T14:10:07.191Z,8.60
2018-11-13T14:45:42.135Z,9.10
2018-11-13T15:51:37.100Z,9.00
2018-11-13T16:37:14.625Z,8.80
2018-11-13T16:42:19.423Z,8.70
2018-11-13T17:33:06.489Z,8.20
2018-11-13T18:44:06.815Z,7.30
2018-11-13T18:54:14.347Z,7.00
2018-11-13T19:45:23.801Z,7.20
2018-11-13T20:15:52.193Z,6.50
2018-11-13T20:36:12.727Z,6.60
2018-11-13T20:46:22.983Z,6.80
2018-11-13T21:11:46.071Z,7.30
2018-11-13T21:16:50.968Z,7.10
2018-11-13T21:57:29.745Z,7.50
2018-11-13T22:38:02.616Z,7.40
2018-11-13T22:43:06.526Z,7.40
2018-11-13T22:48:12.902Z,7.40
2018-11-13T22:53:16.924Z,7.40
2018-11-13T22:58:21.156Z,7.40
2018-11-13T23:03:25.619Z,7.30
2018-11-13T23:33:47.845Z,7.20
2018-11-13T23:38:53.660Z,7.20
2018-11-13T23:43:59.155Z,7.20
2018-11-13T23:54:07.064Z,7.20
2018-11-13T23:59:12.863Z,7.10
